Latest Coastal Weather Observations for Sydney Airport

IDN60701

Issued at 12:41 am EDT Friday 24 February 2017 (issued every 10 minutes, with the page automatically refreshed every 10 minutes)

About coastal observations | Map of coastal stations | Coastal observations for NSW | Marine services | Other Formats
Station Details ID: 066037 Name: SYDNEY AIRPORT AMO Lat: -33.95 Lon: 151.17 Height: 6.0 m
Data from the previous 72 hours. | See also: Recent months at Sydney Airport
Date/Time
EDT
Temp
°C
Wind Pressure Rain since
9am
mm
Weather Cloud Vis
km
Sea
Height
m
Swell
Dir  Spd
kts
Gust
kts
hPa Trend Height
m
Period
s
Dir
24/12:30am 23.6 NNE 12 14 1017.8 - 0.0 - - 10 - - - -
24/12:00am 23.7 NNE 11 14 1018.0 F 0.0 Fine Mostly clear 25 - - - -
 
Date/Time
EDT
Temp
°C
Wind Pressure Rain since
9am
mm
Weather Cloud Vis
km
Sea
Height
m
Swell
Dir  Spd
kts
Gust
kts
hPa Trend Height
m
Period
s
Dir
23/11:30pm 24.1 NNE 13 17 1018.0 - 0.0 - - 10 - - - -
23/11:00pm 24.1 NNE 14 19 1018.3 - 0.0 - - 10 - - - -
23/10:30pm 24.7 NNE 14 19 1018.5 - 0.0 - - 10 - - - -
23/10:00pm 24.4 NNE 16 22 1018.4 - 0.0 - - 10 - - - -
23/09:30pm 24.5 NNE 17 22 1018.3 - 0.0 - - 10 - - - -
23/09:00pm 24.9 NNE 18 26 1018.0 R 0.0 Fine Mostly clear 25 - - - -
23/08:30pm 25.3 NNE 17 22 1017.5 - 0.0 - - 10 - - - -
23/08:00pm 25.3 NNE 18 23 1017.0 - 0.0 - - 10 - - - -
23/07:30pm 25.9 NNE 17 22 1016.7 - 0.0 - - 10 - - - -
23/07:00pm 26.3 NNE 17 21 1016.4 - 0.0 - - 10 - - - -
23/06:30pm 26.6 NNE 21 27 1016.3 - 0.0 - - 10 - - - -
23/06:00pm 27.3 NNE 22 28 1016.0 F 0.0 Fine Mostly clear 30 - - - -
23/05:30pm 27.6 NE 23 29 1015.9 - 0.0 - - 10 - - - -
23/05:00pm 28.0 NNE 20 26 1016.2 - 0.0 - - 10 - - - -
23/04:30pm 28.9 NE 18 22 1016.3 - 0.0 - - 10 - - - -
23/04:00pm 27.9 NE 20 24 1016.2 - 0.0 - - 10 - - - -
23/03:30pm 28.2 NE 18 22 1016.7 - 0.0 - - 10 - - - -
23/03:00pm 28.4 NE 19 22 1016.9 F 0.0 Fine Mostly clear 30 - - - -
23/02:30pm 27.8 NE 19 24 1017.2 - 0.0 - - 10 - - - -
23/02:00pm 28.2 NE 17 21 1017.5 - 0.0 - - 10 - - - -
23/01:30pm 29.0 NE 18 21 1018.0 - 0.0 - - 10 - - - -
23/01:00pm 28.7 NE 17 21 1018.2 - 0.0 - - 10 - - - -
23/12:30pm 27.6 NE 16 19 1018.4 - 0.0 - - 10 - - - -
23/12:00pm 27.2 NE 15 18 1018.7 F 0.0 Smoke Mostly clear 30 - - - -
23/11:30am 27.1 NE 14 19 1018.7 - 0.0 - - 10 - - - -
23/11:00am 27.4 NNE 10 14 1019.0 - 0.0 - - 10 - - - -
23/10:30am 27.0 NNE 10 15 1019.2 - 0.0 - - 10 - - - -
23/10:00am 26.5 NNE 9 10 1019.5 - 0.0 - Mostly clear 10 - - - -
23/09:30am 26.4 NNE 12 15 1019.6 - 0.0 - Mostly clear 10 - - - -
23/09:00am 25.3 NNE 12 15 1019.6 R 0.0 Fine Mostly clear 25 - - - -
23/08:30am 24.5 NNE 12 15 1019.4 - 0.0 - Mostly clear 10 - - - -
23/08:00am 23.5 N 6 8 1019.3 - 0.0 - Mostly clear 10 - - - -
23/07:30am 23.3 N 7 10 1019.1 - 0.0 - Mostly clear 10 - - - -
23/07:00am 22.7 N 9 14 1018.9 - 0.0 - Mostly clear 10 - - - -
23/06:30am 22.7 N 12 15 1018.5 - 0.0 - Mostly clear 10 - - - -
23/06:00am 22.6 NNE 11 15 1018.1 F 0.0 Fine Mostly clear 25 - - - -
23/05:30am 22.9 NNE 12 14 1018.1 - 0.0 - - 10 - - - -
23/05:00am 22.4 NNE 12 17 1018.2 - 0.0 - - 10 - - - -
23/04:30am 22.4 NNE 12 15 1018.2 - 0.0 - - 10 - - - -
23/04:00am 22.4 NE 17 22 1018.1 - 0.0 - - 10 - - - -
23/03:30am 22.6 NNE 13 17 1018.1 - 0.0 - - 10 - - - -
23/03:00am 22.5 NNE 13 17 1018.3 R 0.0 Fine Clear 30 - - - -
23/02:30am 22.5 NNE 13 18 1018.5 - 0.0 - - 10 - - - -
23/02:00am 22.4 NNE 13 16 1018.6 - 0.0 - - 10 - - - -
23/01:30am 22.7 NNE 14 19 1018.7 - 0.0 - - 10 - - - -
23/01:00am 22.8 NNE 12 18 1019.0 - 0.0 - - 10 - - - -
23/12:30am 23.4 NNE 14 20 1019.1 - 0.0 - - 10 - - - -
23/12:00am 23.5 NNE 16 22 1018.9 R 0.0 Fine Clear 30 - - - -
 
Date/Time
EDT
Temp
°C
Wind Pressure Rain since
9am
mm
Weather Cloud Vis
km
Sea
Height
m
Swell
Dir  Spd
kts
Gust
kts
hPa Trend Height
m
Period
s
Dir
22/11:30pm 23.7 NNE 17 23 1018.9 - 0.0 - - 10 - - - -
22/11:00pm 23.8 NNE 18 25 1018.8 - 0.0 - - 10 - - - -
22/10:30pm 24.2 NNE 19 26 1018.9 - 0.0 - - 10 - - - -
22/10:00pm 24.4 NNE 18 24 1018.8 - 0.0 - - 10 - - - -
22/09:30pm 24.4 NNE 18 24 1018.6 - 0.0 - - 10 - - - -
22/09:00pm 24.7 NNE 18 25 1018.3 S 0.0 Fine Mostly clear 30 - - - -
22/08:30pm 24.7 NNE 17 25 1017.9 - 0.0 - - 10 - - - -
22/08:00pm 24.4 NNE 19 25 1017.5 - 0.0 - Mostly clear 10 - - - -
22/07:30pm 25.3 NNE 18 22 1017.3 - 0.0 - Mostly clear 10 - - - -
22/07:00pm 25.5 NE 21 30 1017.0 - 0.0 - - 10 - - - -
22/06:30pm 26.6 NE 21 28 1016.9 - 0.0 - - 10 - - - -
22/06:00pm 26.6 NE 21 28 1017.0 F 0.0 Fine Clear 30 - - - -
22/05:38pm 27.6 NE 21 31 1017.0 - 0.0 - - 10 - - - -
22/05:30pm 27.9 NE 21 28 1017.0 - 0.0 - - 10 - - - -
22/05:00pm 27.9 NE 21 27 1017.1 - 0.0 - - 10 - - - -
22/04:30pm 28.7 NE 21 29 1017.3 - 0.0 - - 10 - - - -
22/04:00pm 28.1 NE 23 29 1017.5 - 0.0 - - 10 - - - -
22/03:30pm 28.3 NE 20 27 1017.8 - 0.0 - - 10 - - - -
22/03:00pm 28.0 NE 19 26 1018.2 F 0.0 Fine Mostly clear 30 - - - -
22/02:30pm 28.9 NE 20 25 1018.7 - 0.0 - - 10 - - - -
22/02:00pm 28.4 NE 18 24 1019.1 - 0.0 - - 10 - - - -
22/01:30pm 28.4 NE 21 26 1019.5 - 0.0 - - 10 - - - -
22/01:00pm 27.8 NNE 20 25 1019.7 - 0.0 - - 10 - - - -
22/12:30pm 27.8 NE 19 24 1020.1 - 0.0 - - 10 - - - -
22/12:00pm 27.9 NNE 18 24 1020.4 F 0.0 Fine Mostly clear 30 - - - -
22/11:30am 27.3 NNE 18 22 1020.8 - 0.0 - Mostly clear 10 - - - -
22/11:00am 26.7 NE 19 22 1021.2 - 0.0 - Mostly clear 10 - - - -
22/10:30am 26.8 NE 18 22 1021.3 - 0.0 - Mostly clear 10 - - - -
22/10:00am 27.0 NNE 17 22 1021.5 - 0.0 - Mostly clear 10 - - - -
22/09:30am 26.0 N 15 19 1021.6 - 0.0 - Mostly clear 10 - - - -
22/09:00am 25.5 N 15 19 1021.5 R 0.0 Fine Mostly clear 30 - - - -
22/08:30am 24.5 N 8 10 1021.3 - 0.0 - Mostly clear 10 - - - -
22/08:00am 23.4 N 7 9 1021.1 - 0.0 - Mostly clear 10 - - - -
22/07:30am 23.0 NNW 7 9 1020.9 - 0.0 - Mostly clear 10 - - - -
22/07:00am 22.0 NNW 6 7 1020.4 - 0.0 - Mostly clear 10 - - - -
22/06:30am 21.9 NNW 4 5 1020.1 - 0.0 - Mostly clear 10 - - - -
22/06:00am 21.0 NW 5 5 1019.9 S 0.0 Fine Mostly clear 30 - - - -
22/05:30am 21.3 NW 4 5 1019.8 - 0.0 - - 10 - - - -
22/05:00am 21.7 NW 5 6 1019.7 - 0.0 - - 10 - - - -
22/04:30am 21.3 NW 4 6 1019.6 - 0.0 - - 10 - - - -
22/04:00am 21.7 N 4 5 1019.6 - 0.0 - - 10 - - - -
22/03:30am 22.3 N 7 8 1019.6 - 0.0 - - 10 - - - -
22/03:00am 22.5 NNE 8 10 1019.7 R 0.0 Fine Mostly clear 30 - - - -
22/02:30am 22.9 N 11 14 1019.7 - 0.0 - - 10 - - - -
22/02:00am 23.0 N 9 12 1020.0 - 0.0 - - 10 - - - -
22/01:30am 23.1 NNE 9 11 1020.3 - 0.0 - - 10 - - - -
22/01:00am 23.3 NNE 10 14 1020.4 - 0.0 - - 10 - - - -
22/12:30am 23.3 NNE 10 13 1020.6 - 0.0 - - 10 - - - -
22/12:00am 23.5 NNE 11 14 1020.6 F 0.0 Fine Mostly clear 30 - - - -
 
Date/Time
EDT
Temp
°C
Wind Pressure Rain since
9am
mm
Weather Cloud Vis
km
Sea
Height
m
Swell
Dir  Spd
kts
Gust
kts
hPa Trend Height
m
Period
s
Dir
21/11:30pm 23.8 NNE 11 15 1020.9 - 0.0 - - 10 - - - -
21/11:00pm 23.9 NNE 13 16 1020.9 - 0.0 - Mostly clear 10 - - - -
21/10:30pm 24.0 NNE 12 15 1021.0 - 0.0 - Mostly clear 10 - - - -
21/10:00pm 24.4 NNE 13 16 1020.9 - 0.0 - Mostly clear 10 - - - -
21/09:30pm 24.3 NNE 13 16 1020.8 - 0.0 - Mostly clear 10 - - - -
21/09:00pm 24.7 NNE 12 18 1020.7 R 0.0 Fine Partly cloudy 40 - - - -
21/08:30pm 25.0 NNE 11 14 1020.3 - 0.0 - Mostly clear 10 - - - -
21/08:00pm 24.7 NE 11 14 1019.8 - 0.0 - Mostly clear 10 - - - -
21/07:30pm 24.9 NE 14 19 1019.5 - 0.0 - Mostly clear 10 - - - -
21/07:00pm 25.8 NE 14 17 1019.1 - 0.0 - Mostly clear 10 - - - -
21/06:30pm 25.2 ENE 15 21 1018.6 - 0.0 - Mostly clear 10 - - - -
21/06:00pm 25.6 E 17 21 1018.4 R 0.0 Fine Partly cloudy 40 - - - -
21/05:30pm 25.8 E 16 20 1018.3 - 0.0 - Mostly clear 10 - - - -
21/05:00pm 26.5 E 13 18 1018.3 - 0.0 - Mostly clear 10 - - - -
21/04:30pm 26.1 E 12 16 1018.3 - 0.0 - Mostly clear 10 - - - -
21/04:00pm 26.3 E 11 16 1018.3 - 0.0 - Mostly clear 10 - - - -
21/03:30pm 26.0 ESE 12 16 1018.4 - 0.0 - Mostly clear 10 - - - -
21/03:00pm 25.2 ESE 13 16 1018.5 F 0.0 Fine Mostly clear 30 - - - -
21/02:30pm 26.1 SE 12 15 1018.8 - 0.0 - Mostly clear 10 - - - -
21/02:00pm 24.3 SE 13 16 1019.2 - 0.0 - Mostly clear 10 - - - -
21/01:30pm 23.8 S 11 15 1019.5 - 0.0 - Mostly clear 10 - - - -
21/01:00pm 24.6 S 11 14 1019.7 - 0.0 - Mostly clear 10 - - - -
21/12:30pm 25.0 S 12 14 1019.9 - 0.0 - Mostly clear 10 - - - -
21/12:00pm 24.2 S 12 15 1020.3 R 0.0 Fine Partly cloudy 30 - - - -
21/11:30am 23.3 S 12 14 1020.5 - 0.0 - Mostly clear 10 - - - -
21/11:00am 22.6 S 10 13 1020.7 - 0.0 - Mostly clear 10 - - - -
21/10:30am 21.8 S 9 11 1020.6 - 0.0 - Mostly clear 10 - - - -
21/10:00am 21.6 SW 4 7 1020.4 - 0.0 - Mostly clear 10 - - - -
21/09:30am 21.3 W 5 6 1020.1 - 0.0 - Mostly clear 10 - - - -
21/09:00am 20.5 WNW 5 6 1019.8 R 0.2 Fine Mostly cloudy 30 - - - -
21/08:30am 19.4 NW 5 7 1019.4 - 0.2 - Mostly clear 10 - - - -
21/08:00am 18.7 NW 5 7 1018.9 - 0.2 - Mostly clear 10 - - - -
21/07:30am 18.2 NW 6 7 1018.6 - 0.2 - Mostly clear 10 - - - -
21/07:00am 17.7 NW 7 7 1018.0 - 0.2 - Partly cloudy 10 - - - -
21/06:30am 17.8 NW 7 10 1017.7 - 0.2 - Partly cloudy 10 - - - -
21/06:00am 17.6 NW 7 9 1017.5 R 0.2 Fine Mostly clear 30 - - - -
21/05:30am 18.2 NW 7 7 1017.1 - 0.2 - - 10 - - - -
21/05:00am 18.8 NNW 5 5 1016.9 - 0.2 - - 10 - - - -
21/04:30am 18.1 WSW 9 11 1017.0 - 0.2 - - 10 - - - -
21/04:00am 18.5 SW 11 14 1017.0 - 0.2 - Partly cloudy 10 - - - -
21/03:30am 18.2 SW 8 10 1016.9 - 0.2 - - 10 - - - -
21/03:00am 18.7 SSW 9 11 1016.8 R 0.2 Fine Clear 40 - - - -
21/02:30am 18.9 WSW 4 6 1016.7 - 0.2 - - 10 - - - -
21/02:00am 19.6 WSW 5 5 1016.6 - 0.2 - - 10 - - - -
21/01:30am 19.5 SW 6 7 1016.8 - 0.2 - - 10 - - - -
21/01:00am 19.4 WSW 7 8 1016.9 - 0.2 - - 10 - - - -

Other Formats:

Comma delimited format used in spreadsheet applications
http://www.bom.gov.au/fwo/IDN60701/IDN60701.94767.axf

JavaScript Object Notation format (JSON) in row-major order
http://www.bom.gov.au/fwo/IDN60701/IDN60701.94767.json